sensor_id;sensor_type;location;lat;lon;timestamp;pressure;altitude;pressure_sealevel;temperature;humidity
24868;BME280;12941;48.698;9.310;2024-01-11T00:00:40;98812.2;;;3.44;51.277
24868;BME280;12941;48.698;9.310;2024-01-11T00:01:44;98806.4;;;3.41;51.325
24868;BME280;12941;48.698;9.310;2024-01-11T00:02:46;98807.2;;;3.41;51.337
24868;BME280;12941;48.698;9.310;2024-01-11T00:03:46;98810.6;;;3.4;51.378
24868;BME280;12941;48.698;9.310;2024-01-11T00:04:51;98808.1;;;3.4;51.261
24868;BME280;12941;48.698;9.310;2024-01-11T00:05:56;98801.3;;;3.39;51.26
24868;BME280;12941;48.698;9.310;2024-01-11T00:07:00;98804.7;;;3.4;51.261
24868;BME280;12941;48.698;9.310;2024-01-11T00:08:00;98803;;;3.38;51.344
24868;BME280;12941;48.698;9.310;2024-01-11T00:09:06;98798.8;;;3.36;51.542
24868;BME280;12941;48.698;9.310;2024-01-11T00:10:06;98797.1;;;3.35;51.361
24868;BME280;12941;48.698;9.310;2024-01-11T00:11:05;98807.3;;;3.35;51.213
24868;BME280;12941;48.698;9.310;2024-01-11T00:12:06;98799.7;;;3.35;51.256
24868;BME280;12941;48.698;9.310;2024-01-11T00:13:11;98811.5;;;3.36;51.276
24868;BME280;12941;48.698;9.310;2024-01-11T00:14:11;98806.4;;;3.34;51.265
24868;BME280;12941;48.698;9.310;2024-01-11T00:15:11;98800.5;;;3.34;51.327
24868;BME280;12941;48.698;9.310;2024-01-11T00:16:16;98805.6;;;3.34;51.381
24868;BME280;12941;48.698;9.310;2024-01-11T00:17:21;98806.5;;;3.33;51.434
24868;BME280;12941;48.698;9.310;2024-01-11T00:18:25;98806.5;;;3.33;51.487
24868;BME280;12941;48.698;9.310;2024-01-11T00:19:26;98809.79999999999;;;3.33;51.402
24868;BME280;12941;48.698;9.310;2024-01-11T00:20:31;98809.79999999999;;;3.33;51.444
24868;BME280;12941;48.698;9.310;2024-01-11T00:21:31;98812.3;;;3.35;51.468
24868;BME280;12941;48.698;9.310;2024-01-11T00:22:36;98811.5;;;3.33;51.455
24868;BME280;12941;48.698;9.310;2024-01-11T00:23:36;98810.7;;;3.34;51.466
24868;BME280;12941;48.698;9.310;2024-01-11T00:24:41;98811.5;;;3.33;51.551
24868;BME280;12941;48.698;9.310;2024-01-11T00:25:41;98815.7;;;3.32;51.655
24868;BME280;12941;48.698;9.310;2024-01-11T00:26:46;98814.09999999999;;;3.33;51.721
24868;BME280;12941;48.698;9.310;2024-01-11T00:27:51;98812.40000000001;;;3.33;51.699
24868;BME280;12941;48.698;9.310;2024-01-11T00:28:51;98814.9;;;3.33;51.71
24868;BME280;12941;48.698;9.310;2024-01-11T00:29:56;98822.5;;;3.32;51.644
24868;BME280;12941;48.698;9.310;2024-01-11T00:31:01;98821.7;;;3.3;51.705
24868;BME280;12941;48.698;9.310;2024-01-11T00:32:06;98824.2;;;3.3;51.674
24868;BME280;12941;48.698;9.310;2024-01-11T00:33:06;98823.40000000001;;;3.28;51.65
24868;BME280;12941;48.698;9.310;2024-01-11T00:34:11;98825.9;;;3.28;51.692
24868;BME280;12941;48.698;9.310;2024-01-11T00:35:16;98821.7;;;3.27;51.755
24868;BME280;12941;48.698;9.310;2024-01-11T00:36:17;98826.8;;;3.27;51.702
24868;BME280;12941;48.698;9.310;2024-01-11T00:37:16;98822.6;;;3.26;51.669
24868;BME280;12941;48.698;9.310;2024-01-11T00:38:16;98822.6;;;3.26;51.743
24868;BME280;12941;48.698;9.310;2024-01-11T00:39:21;98825.9;;;3.28;51.799
24868;BME280;12941;48.698;9.310;2024-01-11T00:40:21;98825.9;;;3.28;51.756
24868;BME280;12941;48.698;9.310;2024-01-11T00:41:26;98823.40000000001;;;3.28;51.682
24868;BME280;12941;48.698;9.310;2024-01-11T00:42:26;98823.40000000001;;;3.28;51.682
24868;BME280;12941;48.698;9.310;2024-01-11T00:43:31;98821.7;;;3.25;51.742
24868;BME280;12941;48.698;9.310;2024-01-11T00:44:36;98829.4;;;3.24;51.763
24868;BME280;12941;48.698;9.310;2024-01-11T00:45:41;98837.8;;;3.23;51.634
24868;BME280;12941;48.698;9.310;2024-01-11T00:46:46;98833.6;;;3.22;51.675
24868;BME280;12941;48.698;9.310;2024-01-11T00:47:46;98829.4;;;3.21;51.685
24868;BME280;12941;48.698;9.310;2024-01-11T00:48:46;98828.59999999999;;;3.19;51.714
24868;BME280;12941;48.698;9.310;2024-01-11T00:49:51;98829.4;;;3.18;51.808
24868;BME280;12941;48.698;9.310;2024-01-11T00:50:56;98826;;;3.19;51.842
24868;BME280;12941;48.698;9.310;2024-01-11T00:52:01;98821.8;;;3.18;51.967
24868;BME280;12941;48.698;9.310;2024-01-11T00:53:01;98819.3;;;3.15;51.57
24868;BME280;12941;48.698;9.310;2024-01-11T00:54:06;98816;;;3.13;50.974
24868;BME280;12941;48.698;9.310;2024-01-11T00:55:06;98814.3;;;3.09;50.745
24868;BME280;12941;48.698;9.310;2024-01-11T00:56:18;98817.7;;;3.08;50.767
24868;BME280;12941;48.698;9.310;2024-01-11T00:57:11;98817.7;;;3.04;50.613
24868;BME280;12941;48.698;9.310;2024-01-11T00:58:16;98821.1;;;3.03;50.676
24868;BME280;12941;48.698;9.310;2024-01-11T00:59:16;98825.40000000001;;;3;50.725
24868;BME280;12941;48.698;9.310;2024-01-11T01:00:16;98824.5;;;2.96;50.816
24868;BME280;12941;48.698;9.310;2024-01-11T01:01:21;98827.9;;;2.95;50.815
24868;BME280;12941;48.698;9.310;2024-01-11T01:02:26;98831.3;;;2.94;50.845
24868;BME280;12941;48.698;9.310;2024-01-11T01:03:26;98822.90000000001;;;2.92;50.854
24868;BME280;12941;48.698;9.310;2024-01-11T01:04:26;98821.3;;;2.88;50.286
24868;BME280;12941;48.698;9.310;2024-01-11T01:05:31;98821.3;;;2.82;50.418
24868;BME280;12941;48.698;9.310;2024-01-11T01:06:31;98825.59999999999;;;2.79;50.444
24868;BME280;12941;48.698;9.310;2024-01-11T01:07:31;98826.5;;;2.73;50.481
24868;BME280;12941;48.698;9.310;2024-01-11T01:08:36;98823.1;;;2.68;50.708
24868;BME280;12941;48.698;9.310;2024-01-11T01:09:36;98824;;;2.65;50.886
24868;BME280;12941;48.698;9.310;2024-01-11T01:10:36;98827.4;;;2.64;50.991
24868;BME280;12941;48.698;9.310;2024-01-11T01:11:41;98818.1;;;2.62;51.242
24868;BME280;12941;48.698;9.310;2024-01-11T01:12:41;98826.59999999999;;;2.58;51.555
24868;BME280;12941;48.698;9.310;2024-01-11T01:13:41;98824.1;;;2.52;51.823
24868;BME280;12941;48.698;9.310;2024-01-11T01:14:46;98831.7;;;2.49;52.085
24868;BME280;12941;48.698;9.310;2024-01-11T01:15:46;98838.5;;;2.47;52.219
24868;BME280;12941;48.698;9.310;2024-01-11T01:16:51;98835.1;;;2.45;52.376
24868;BME280;12941;48.698;9.310;2024-01-11T01:17:51;98835.1;;;2.45;52.418
24868;BME280;12941;48.698;9.310;2024-01-11T01:18:56;98833.4;;;2.47;52.441
24868;BME280;12941;48.698;9.310;2024-01-11T01:19:56;98827.5;;;2.48;52.412
24868;BME280;12941;48.698;9.310;2024-01-11T01:21:01;98833.4;;;2.5;52.404
24868;BME280;12941;48.698;9.310;2024-01-11T01:22:01;98831.7;;;2.52;52.396
24868;BME280;12941;48.698;9.310;2024-01-11T01:23:06;98826.59999999999;;;2.52;52.343
24868;BME280;12941;48.698;9.310;2024-01-11T01:24:06;98824.1;;;2.53;52.322
24868;BME280;12941;48.698;9.310;2024-01-11T01:25:06;98824.1;;;2.55;52.348
24868;BME280;12941;48.698;9.310;2024-01-11T01:26:11;98825.8;;;2.56;52.421
24868;BME280;12941;48.698;9.310;2024-01-11T01:27:16;98830;;;2.57;52.328
24868;BME280;12941;48.698;9.310;2024-01-11T01:28:21;98824.90000000001;;;2.55;52.283
24868;BME280;12941;48.698;9.310;2024-01-11T01:29:26;98830.8;;;2.56;52.156
24868;BME280;12941;48.698;9.310;2024-01-11T01:30:31;98825.8;;;2.54;52.134
24868;BME280;12941;48.698;9.310;2024-01-11T01:31:36;98826.59999999999;;;2.55;52.156
24868;BME280;12941;48.698;9.310;2024-01-11T01:32:36;98816.5;;;2.55;52.135
24868;BME280;12941;48.698;9.310;2024-01-11T01:33:41;98835.1;;;2.54;52.175
24868;BME280;12941;48.698;9.310;2024-01-11T01:34:46;98825.8;;;2.56;52.305
24868;BME280;12941;48.698;9.310;2024-01-11T01:35:46;98831.7;;;2.58;52.159
24868;BME280;12941;48.698;9.310;2024-01-11T01:36:51;98837.59999999999;;;2.58;52.128
24868;BME280;12941;48.698;9.310;2024-01-11T01:37:51;98835;;;2.57;52.201
24868;BME280;12941;48.698;9.310;2024-01-11T01:38:51;98836.7;;;2.56;52.264
24868;BME280;12941;48.698;9.310;2024-01-11T01:39:56;98840.09999999999;;;2.57;52.297
24868;BME280;12941;48.698;9.310;2024-01-11T01:41:01;98834.2;;;2.58;52.201
24868;BME280;12941;48.698;9.310;2024-01-11T01:42:06;98835;;;2.57;52.031
24868;BME280;12941;48.698;9.310;2024-01-11T01:43:11;98836.7;;;2.55;51.902
24868;BME280;12941;48.698;9.310;2024-01-11T01:44:16;98830.8;;;2.53;51.761
24868;BME280;12941;48.698;9.310;2024-01-11T01:45:16;98836.7;;;2.52;51.686
24868;BME280;12941;48.698;9.310;2024-01-11T01:46:22;98830;;;2.51;51.759
24868;BME280;12941;48.698;9.310;2024-01-11T01:47:21;98827.5;;;2.49;51.788
24868;BME280;12941;48.698;9.310;2024-01-11T01:48:26;98839.3;;;2.49;51.937
24868;BME280;12941;48.698;9.310;2024-01-11T01:49:26;98840.09999999999;;;2.49;51.894
24868;BME280;12941;48.698;9.310;2024-01-11T01:50:31;98846.1;;;2.48;51.989
24868;BME280;12941;48.698;9.310;2024-01-11T01:51:36;98843.5;;;2.47;52.103
24868;BME280;12941;48.698;9.310;2024-01-11T01:52:36;98841;;;2.45;52.112
24868;BME280;12941;48.698;9.310;2024-01-11T01:53:36;98850.3;;;2.45;52.164
24868;BME280;12941;48.698;9.310;2024-01-11T01:54:41;98849.5;;;2.44;52.291
24868;BME280;12941;48.698;9.310;2024-01-11T01:55:41;98863.8;;;2.45;52.409
24868;BME280;12941;48.698;9.310;2024-01-11T01:56:46;98859.6;;;2.46;52.399
24868;BME280;12941;48.698;9.310;2024-01-11T01:57:46;98855.3;;;2.48;52.381
24868;BME280;12941;48.698;9.310;2024-01-11T01:58:51;98862.90000000001;;;2.51;52.405
24868;BME280;12941;48.698;9.310;2024-01-11T01:59:56;98857.8;;;2.51;52.426
24868;BME280;12941;48.698;9.310;2024-01-11T02:00:56;98863.7;;;2.54;52.378
24868;BME280;12941;48.698;9.310;2024-01-11T02:02:01;98863.7;;;2.56;52.348
24868;BME280;12941;48.698;9.310;2024-01-11T02:03:01;98867.1;;;2.56;52.412
24868;BME280;12941;48.698;9.310;2024-01-11T02:04:06;98866.2;;;2.56;52.379
24868;BME280;12941;48.698;9.310;2024-01-11T02:05:11;98865.4;;;2.55;52.411
24868;BME280;12941;48.698;9.310;2024-01-11T02:06:11;98861.2;;;2.54;52.346
24868;BME280;12941;48.698;9.310;2024-01-11T02:07:16;98864.59999999999;;;2.53;52.206
24868;BME280;12941;48.698;9.310;2024-01-11T02:08:16;98863.7;;;2.53;52.1
24868;BME280;12941;48.698;9.310;2024-01-11T02:09:21;98865.4;;;2.51;52.15
24868;BME280;12941;48.698;9.310;2024-01-11T02:10:26;98862.09999999999;;;2.5;52.214
24868;BME280;12941;48.698;9.310;2024-01-11T02:11:26;98864.59999999999;;;2.49;52.19
24868;BME280;12941;48.698;9.310;2024-01-11T02:12:31;98860.40000000001;;;2.48;51.872
24868;BME280;12941;48.698;9.310;2024-01-11T02:13:36;98858.7;;;2.47;51.657
24868;BME280;12941;48.698;9.310;2024-01-11T02:14:37;98859.6;;;2.44;51.4
24868;BME280;12941;48.698;9.310;2024-01-11T02:15:36;98863.8;;;2.44;51.315
24868;BME280;12941;48.698;9.310;2024-01-11T02:16:41;98860.40000000001;;;2.42;51.271
24868;BME280;12941;48.698;9.310;2024-01-11T02:17:41;98854.5;;;2.4;51.363
24868;BME280;12941;48.698;9.310;2024-01-11T02:18:41;98855.4;;;2.37;51.487
24868;BME280;12941;48.698;9.310;2024-01-11T02:19:41;98862.09999999999;;;2.36;51.444
24868;BME280;12941;48.698;9.310;2024-01-11T02:20:46;98858.8;;;2.34;51.4
24868;BME280;12941;48.698;9.310;2024-01-11T02:21:46;98854.6;;;2.33;51.516
24868;BME280;12941;48.698;9.310;2024-01-11T02:22:53;98857.1;;;2.3;51.596
24868;BME280;12941;48.698;9.310;2024-01-11T02:23:59;98860.5;;;2.29;51.606
24868;BME280;12941;48.698;9.310;2024-01-11T02:24:56;98858;;;2.29;51.574
24868;BME280;12941;48.698;9.310;2024-01-11T02:25:56;98858.8;;;2.28;51.509
24868;BME280;12941;48.698;9.310;2024-01-11T02:26:57;98863;;;2.28;51.752
24868;BME280;12941;48.698;9.310;2024-01-11T02:28:01;98859.7;;;2.27;51.858
24868;BME280;12941;48.698;9.310;2024-01-11T02:29:07;98866.4;;;2.25;51.834
24868;BME280;12941;48.698;9.310;2024-01-11T02:30:11;98859.7;;;2.24;51.886
24868;BME280;12941;48.698;9.310;2024-01-11T02:31:12;98869.8;;;2.24;51.971
24868;BME280;12941;48.698;9.310;2024-01-11T02:32:16;98857.2;;;2.24;52.108
24868;BME280;12941;48.698;9.310;2024-01-11T02:33:17;98857.2;;;2.23;52.181
24868;BME280;12941;48.698;9.310;2024-01-11T02:34:22;98858.90000000001;;;2.22;52.148
24868;BME280;12941;48.698;9.310;2024-01-11T02:35:21;98864.8;;;2.23;51.959
24868;BME280;12941;48.698;9.310;2024-01-11T02:36:26;98865.59999999999;;;2.23;51.969
24868;BME280;12941;48.698;9.310;2024-01-11T02:37:31;98874;;;2.22;52.031
24868;BME280;12941;48.698;9.310;2024-01-11T02:38:36;98858;;;2.22;52.063
24868;BME280;12941;48.698;9.310;2024-01-11T02:39:41;98865.59999999999;;;2.2;52.061
24868;BME280;12941;48.698;9.310;2024-01-11T02:40:46;98869.8;;;2.18;52.102
24868;BME280;12941;48.698;9.310;2024-01-11T02:41:56;98867.3;;;2.15;52.266
24868;BME280;12941;48.698;9.310;2024-01-11T02:42:57;98870.7;;;2.14;52.455
24868;BME280;12941;48.698;9.310;2024-01-11T02:43:57;98872.40000000001;;;2.12;52.591
24868;BME280;12941;48.698;9.310;2024-01-11T02:45:02;98872.40000000001;;;2.12;52.654
24868;BME280;12941;48.698;9.310;2024-01-11T02:46:07;98871.6;;;2.13;52.624
24868;BME280;12941;48.698;9.310;2024-01-11T02:47:12;98872.40000000001;;;2.15;52.573
24868;BME280;12941;48.698;9.310;2024-01-11T02:48:17;98869.9;;;2.14;52.413
24868;BME280;12941;48.698;9.310;2024-01-11T02:49:21;98871.6;;;2.12;52.506
24868;BME280;12941;48.698;9.310;2024-01-11T02:50:21;98870.7;;;2.11;52.526
24868;BME280;12941;48.698;9.310;2024-01-11T02:51:26;98866.5;;;2.1;52.493
24868;BME280;12941;48.698;9.310;2024-01-11T02:52:31;98869.9;;;2.09;52.693
24868;BME280;12941;48.698;9.310;2024-01-11T02:53:31;98874.1;;;2.07;52.85
24868;BME280;12941;48.698;9.310;2024-01-11T02:54:37;98868.2;;;2.07;52.912
24868;BME280;12941;48.698;9.310;2024-01-11T02:55:42;98864;;;2.07;52.828
24868;BME280;12941;48.698;9.310;2024-01-11T02:56:46;98870.7;;;2.08;52.745
24868;BME280;12941;48.698;9.310;2024-01-11T02:57:51;98867.4;;;2.08;52.723
24868;BME280;12941;48.698;9.310;2024-01-11T02:58:52;98867.4;;;2.06;52.615
24868;BME280;12941;48.698;9.310;2024-01-11T02:59:52;98867.4;;;2.06;52.552
24868;BME280;12941;48.698;9.310;2024-01-11T03:00:56;98867.4;;;2.06;52.595
24868;BME280;12941;48.698;9.310;2024-01-11T03:01:56;98869.1;;;2.07;52.596
24868;BME280;12941;48.698;9.310;2024-01-11T03:03:02;98864;;;2.06;52.466
24868;BME280;12941;48.698;9.310;2024-01-11T03:04:07;98866.5;;;2.06;52.328
24868;BME280;12941;48.698;9.310;2024-01-11T03:05:12;98865.7;;;2.05;52.243
24868;BME280;12941;48.698;9.310;2024-01-11T03:06:17;98859;;;2.06;52.255
24868;BME280;12941;48.698;9.310;2024-01-11T03:07:22;98859;;;2.06;52.297
24868;BME280;12941;48.698;9.310;2024-01-11T03:08:27;98855.6;;;2.05;52.434
24868;BME280;12941;48.698;9.310;2024-01-11T03:09:31;98856.4;;;2.02;52.463
24868;BME280;12941;48.698;9.310;2024-01-11T03:10:32;98856.4;;;2.01;52.313
24868;BME280;12941;48.698;9.310;2024-01-11T03:11:37;98857.3;;;2.01;52.25
24868;BME280;12941;48.698;9.310;2024-01-11T03:12:42;98860.7;;;1.99;52.268
24868;BME280;12941;48.698;9.310;2024-01-11T03:13:46;98848.90000000001;;;1.95;52.315
24868;BME280;12941;48.698;9.310;2024-01-11T03:14:47;98854;;;1.95;52.422
24868;BME280;12941;48.698;9.310;2024-01-11T03:15:52;98857.3;;;1.94;52.409
24868;BME280;12941;48.698;9.310;2024-01-11T03:16:52;98849.7;;;1.94;52.462
24868;BME280;12941;48.698;9.310;2024-01-11T03:17:57;98855.7;;;1.93;52.6
24868;BME280;12941;48.698;9.310;2024-01-11T03:19:02;98858.2;;;1.9;52.69
24868;BME280;12941;48.698;9.310;2024-01-11T03:20:07;98855.7;;;1.87;52.993
24868;BME280;12941;48.698;9.310;2024-01-11T03:21:12;98851.5;;;1.86;53.246
24868;BME280;12941;48.698;9.310;2024-01-11T03:22:12;98850.59999999999;;;1.84;53.381
24868;BME280;12941;48.698;9.310;2024-01-11T03:23:12;98852.3;;;1.82;53.591
24868;BME280;12941;48.698;9.310;2024-01-11T03:24:17;98848.1;;;1.79;53.692
24868;BME280;12941;48.698;9.310;2024-01-11T03:25:22;98845.6;;;1.78;53.796
24868;BME280;12941;48.698;9.310;2024-01-11T03:26:22;98847.29999999999;;;1.79;53.818
24868;BME280;12941;48.698;9.310;2024-01-11T03:27:22;98843.9;;;1.8;53.736
24868;BME280;12941;48.698;9.310;2024-01-11T03:28:27;98847.29999999999;;;1.8;53.631
24868;BME280;12941;48.698;9.310;2024-01-11T03:29:32;98843.1;;;1.81;53.599
24868;BME280;12941;48.698;9.310;2024-01-11T03:30:32;98840.5;;;1.81;53.557
24868;BME280;12941;48.698;9.310;2024-01-11T03:31:37;98840.5;;;1.81;53.524
24868;BME280;12941;48.698;9.310;2024-01-11T03:32:37;98839.70000000001;;;1.79;53.597
24868;BME280;12941;48.698;9.310;2024-01-11T03:33:42;98836.3;;;1.8;53.577
24868;BME280;12941;48.698;9.310;2024-01-11T03:34:42;98839.70000000001;;;1.79;53.597
24868;BME280;12941;48.698;9.310;2024-01-11T03:35:47;98843.1;;;1.81;53.673
24868;BME280;12941;48.698;9.310;2024-01-11T03:36:52;98839.70000000001;;;1.82;53.611
24868;BME280;12941;48.698;9.310;2024-01-11T03:37:52;98848.1;;;1.81;53.567
24868;BME280;12941;48.698;9.310;2024-01-11T03:38:57;98842.2;;;1.79;53.564
24868;BME280;12941;48.698;9.310;2024-01-11T03:40:02;98840.5;;;1.78;53.542
24868;BME280;12941;48.698;9.310;2024-01-11T03:41:07;98846.40000000001;;;1.78;53.597
24868;BME280;12941;48.698;9.310;2024-01-11T03:42:07;98839.70000000001;;;1.77;53.69
24868;BME280;12941;48.698;9.310;2024-01-11T03:43:12;98838.9;;;1.75;53.752
24868;BME280;12941;48.698;9.310;2024-01-11T03:44:12;98837.2;;;1.76;53.794
24868;BME280;12941;48.698;9.310;2024-01-11T03:45:17;98843.9;;;1.77;53.933
24868;BME280;12941;48.698;9.310;2024-01-11T03:46:22;98841.4;;;1.77;54.08
24868;BME280;12941;48.698;9.310;2024-01-11T03:47:27;98840.5;;;1.78;54.262
24868;BME280;12941;48.698;9.310;2024-01-11T03:48:27;98838.9;;;1.8;54.308
24868;BME280;12941;48.698;9.310;2024-01-11T03:49:32;98833.8;;;1.8;54.117
24868;BME280;12941;48.698;9.310;2024-01-11T03:50:32;98837.2;;;1.82;54.045
24868;BME280;12941;48.698;9.310;2024-01-11T03:51:32;98833;;;1.82;53.981
24868;BME280;12941;48.698;9.310;2024-01-11T03:52:37;98836.3;;;1.81;53.938
24868;BME280;12941;48.698;9.310;2024-01-11T03:53:37;98830.4;;;1.79;53.989
24868;BME280;12941;48.698;9.310;2024-01-11T03:54:42;98836.3;;;1.78;54.02
24868;BME280;12941;48.698;9.310;2024-01-11T03:55:47;98827.9;;;1.75;53.962
24868;BME280;12941;48.698;9.310;2024-01-11T03:56:52;98829.6;;;1.74;53.898
24868;BME280;12941;48.698;9.310;2024-01-11T03:57:57;98830.5;;;1.72;53.979
24868;BME280;12941;48.698;9.310;2024-01-11T03:58:57;98826.2;;;1.72;54.065
24868;BME280;12941;48.698;9.310;2024-01-11T04:00:02;98827.9;;;1.7;54.084
24868;BME280;12941;48.698;9.310;2024-01-11T04:01:02;98827.9;;;1.72;54.127
24868;BME280;12941;48.698;9.310;2024-01-11T04:02:02;98828.8;;;1.71;54.084
24868;BME280;12941;48.698;9.310;2024-01-11T04:03:02;98828.8;;;1.71;54.01
24868;BME280;12941;48.698;9.310;2024-01-11T04:04:02;98830.5;;;1.72;53.831
24868;BME280;12941;48.698;9.310;2024-01-11T04:05:02;98829.6;;;1.71;53.904
24868;BME280;12941;48.698;9.310;2024-01-11T04:06:07;98830.5;;;1.72;53.905
24868;BME280;12941;48.698;9.310;2024-01-11T04:07:07;98827.09999999999;;;1.71;54.115
24868;BME280;12941;48.698;9.310;2024-01-11T04:08:12;98825.40000000001;;;1.72;54.244
24868;BME280;12941;48.698;9.310;2024-01-11T04:09:17;98827.09999999999;;;1.71;54.306
24868;BME280;12941;48.698;9.310;2024-01-11T04:10:17;98823.7;;;1.71;54.349
24868;BME280;12941;48.698;9.310;2024-01-11T04:11:17;98827.9;;;1.72;54.35
24868;BME280;12941;48.698;9.310;2024-01-11T04:12:17;98825.40000000001;;;1.68;54.345
24868;BME280;12941;48.698;9.310;2024-01-11T04:13:22;98826.3;;;1.67;54.397
24868;BME280;12941;48.698;9.310;2024-01-11T04:14:27;98830.5;;;1.65;54.374
24868;BME280;12941;48.698;9.310;2024-01-11T04:15:27;98833;;;1.64;54.444
24868;BME280;12941;48.698;9.310;2024-01-11T04:16:27;98836.40000000001;;;1.63;54.455
24868;BME280;12941;48.698;9.310;2024-01-11T04:17:27;98838.09999999999;;;1.64;54.413
24868;BME280;12941;48.698;9.310;2024-01-11T04:18:32;98838.9;;;1.64;54.435
24868;BME280;12941;48.698;9.310;2024-01-11T04:19:37;98831.3;;;1.64;54.52
24868;BME280;12941;48.698;9.310;2024-01-11T04:20:42;98833.8;;;1.64;54.234
24868;BME280;12941;48.698;9.310;2024-01-11T04:21:47;98840.59999999999;;;1.65;53.993
24868;BME280;12941;48.698;9.310;2024-01-11T04:22:52;98834.7;;;1.65;53.791
24868;BME280;12941;48.698;9.310;2024-01-11T04:23:57;98838.09999999999;;;1.64;53.736
24868;BME280;12941;48.698;9.310;2024-01-11T04:25:02;98837.2;;;1.63;53.81
24868;BME280;12941;48.698;9.310;2024-01-11T04:26:02;98834.7;;;1.63;53.747
24868;BME280;12941;48.698;9.310;2024-01-11T04:27:07;98835.5;;;1.64;53.165
24868;BME280;12941;48.698;9.310;2024-01-11T04:28:07;98833.8;;;1.64;53.092
24868;BME280;12941;48.698;9.310;2024-01-11T04:29:12;98837.2;;;1.65;53.157
24868;BME280;12941;48.698;9.310;2024-01-11T04:30:17;98834.7;;;1.65;53.23
24868;BME280;12941;48.698;9.310;2024-01-11T04:31:22;98831.3;;;1.64;53.356
24868;BME280;12941;48.698;9.310;2024-01-11T04:32:27;98834.7;;;1.65;53.548
24868;BME280;12941;48.698;9.310;2024-01-11T04:33:32;98832.2;;;1.65;53.686
24868;BME280;12941;48.698;9.310;2024-01-11T04:34:32;98833.8;;;1.66;53.612
24868;BME280;12941;48.698;9.310;2024-01-11T04:35:32;98837.2;;;1.66;53.465
24868;BME280;12941;48.698;9.310;2024-01-11T04:36:33;98825.40000000001;;;1.65;53.476
24868;BME280;12941;48.698;9.310;2024-01-11T04:37:37;98830.5;;;1.65;53.539
24868;BME280;12941;48.698;9.310;2024-01-11T04:38:37;98835.5;;;1.65;53.073
24868;BME280;12941;48.698;9.310;2024-01-11T04:39:37;98828.8;;;1.64;52.807
24868;BME280;12941;48.698;9.310;2024-01-11T04:40:37;98829.6;;;1.63;52.478
24868;BME280;12941;48.698;9.310;2024-01-11T04:41:42;98830.5;;;1.62;52.265
24868;BME280;12941;48.698;9.310;2024-01-11T04:42:43;98833.90000000001;;;1.61;52.349
24868;BME280;12941;48.698;9.310;2024-01-11T04:43:46;98830.5;;;1.59;52.431
24868;BME280;12941;48.698;9.310;2024-01-11T04:44:47;98827.20000000001;;;1.57;52.544
24868;BME280;12941;48.698;9.310;2024-01-11T04:45:47;98832.2;;;1.57;52.607
24868;BME280;12941;48.698;9.310;2024-01-11T04:46:53;98830.5;;;1.59;52.695
24868;BME280;12941;48.698;9.310;2024-01-11T04:47:53;98828.8;;;1.57;52.798
24868;BME280;12941;48.698;9.310;2024-01-11T04:48:57;98834.7;;;1.57;52.945
24868;BME280;12941;48.698;9.310;2024-01-11T04:49:57;98833.1;;;1.58;52.83
24868;BME280;12941;48.698;9.310;2024-01-11T04:51:03;98833.1;;;1.56;52.533
24868;BME280;12941;48.698;9.310;2024-01-11T04:52:03;98828.9;;;1.55;52.552
24868;BME280;12941;48.698;9.310;2024-01-11T04:53:03;98832.2;;;1.54;52.647
24868;BME280;12941;48.698;9.310;2024-01-11T04:54:07;98828.9;;;1.52;52.453
24868;BME280;12941;48.698;9.310;2024-01-11T04:55:07;98825.5;;;1.5;52.197
24868;BME280;12941;48.698;9.310;2024-01-11T04:56:13;98828;;;1.49;52.006
24868;BME280;12941;48.698;9.310;2024-01-11T04:57:13;98833.1;;;1.49;51.995
24868;BME280;12941;48.698;9.310;2024-01-11T04:58:18;98839.8;;;1.47;51.938
24868;BME280;12941;48.698;9.310;2024-01-11T04:59:17;98835.6;;;1.44;52.021
24868;BME280;12941;48.698;9.310;2024-01-11T05:00:18;98824.7;;;1.44;52.083
24868;BME280;12941;48.698;9.310;2024-01-11T05:01:23;98830.6;;;1.41;52.122
24868;BME280;12941;48.698;9.310;2024-01-11T05:02:27;98835.6;;;1.41;52.133
24868;BME280;12941;48.698;9.310;2024-01-11T05:03:33;98835.6;;;1.41;52.207
24868;BME280;12941;48.698;9.310;2024-01-11T05:04:37;98835.6;;;1.41;52.429
24868;BME280;12941;48.698;9.310;2024-01-11T05:05:43;98830.6;;;1.41;52.672
24868;BME280;12941;48.698;9.310;2024-01-11T05:06:43;98832.3;;;1.41;52.926
24868;BME280;12941;48.698;9.310;2024-01-11T05:07:47;98833.90000000001;;;1.4;53.084
24868;BME280;12941;48.698;9.310;2024-01-11T05:08:48;98833.90000000001;;;1.4;52.915
24868;BME280;12941;48.698;9.310;2024-01-11T05:09:53;98827.20000000001;;;1.39;52.775
24868;BME280;12941;48.698;9.310;2024-01-11T05:10:53;98839.8;;;1.39;52.775
24868;BME280;12941;48.698;9.310;2024-01-11T05:11:57;98836.5;;;1.37;52.752
24868;BME280;12941;48.698;9.310;2024-01-11T05:12:57;98843.2;;;1.37;52.613
24868;BME280;12941;48.698;9.310;2024-01-11T05:13:57;98843.2;;;1.33;52.611
24868;BME280;12941;48.698;9.310;2024-01-11T05:15:03;98840.7;;;1.33;52.621
24868;BME280;12941;48.698;9.310;2024-01-11T05:16:03;98840.7;;;1.33;52.632
24868;BME280;12941;48.698;9.310;2024-01-11T05:17:07;98841.5;;;1.32;52.651
24868;BME280;12941;48.698;9.310;2024-01-11T05:18:07;98841.5;;;1.32;52.556
24868;BME280;12941;48.698;9.310;2024-01-11T05:19:13;98836.5;;;1.32;52.588
24868;BME280;12941;48.698;9.310;2024-01-11T05:20:13;98841.5;;;1.32;52.313
24868;BME280;12941;48.698;9.310;2024-01-11T05:21:18;98837.3;;;1.33;51.944
24868;BME280;12941;48.698;9.310;2024-01-11T05:22:23;98837.3;;;1.33;51.754
24868;BME280;12941;48.698;9.310;2024-01-11T05:23:27;98840.7;;;1.32;51.688
24868;BME280;12941;48.698;9.310;2024-01-11T05:24:33;98847.5;;;1.3;51.823
24868;BME280;12941;48.698;9.310;2024-01-11T05:25:33;98843.2;;;1.27;51.895
24868;BME280;12941;48.698;9.310;2024-01-11T05:26:37;98840.7;;;1.26;52.062
24868;BME280;12941;48.698;9.310;2024-01-11T05:27:37;98846.6;;;1.25;52.166
24868;BME280;12941;48.698;9.310;2024-01-11T05:28:37;98839.9;;;1.24;52.313
24868;BME280;12941;48.698;9.310;2024-01-11T05:29:43;98848.29999999999;;;1.23;52.597
24868;BME280;12941;48.698;9.310;2024-01-11T05:30:47;98850.8;;;1.23;52.745